sensor_id;sensor_type;location;lat;lon;timestamp;pressure;altitude;pressure_sealevel;temperature;humidity
41624;BME280;27319;50.306;18.926;2023-04-21T00:02:05;98349.84;;;9.64;85.57
41624;BME280;27319;50.306;18.926;2023-04-21T00:05:46;98348.88;;;9.73;86.02
41624;BME280;27319;50.306;18.926;2023-04-21T00:08:48;98351.25;;;9.76;85.96
41624;BME280;27319;50.306;18.926;2023-04-21T00:12:09;98345.72;;;9.78;85.17
41624;BME280;27319;50.306;18.926;2023-04-21T00:15:30;98339.81;;;9.74;85.02
41624;BME280;27319;50.306;18.926;2023-04-21T00:18:31;98333.28;;;9.69;85.21
41624;BME280;27319;50.306;18.926;2023-04-21T00:21:52;98338.16;;;9.73;85.65
41624;BME280;27319;50.306;18.926;2023-04-21T00:25:53;98331.44;;;9.69;85.59
41624;BME280;27319;50.306;18.926;2023-04-21T00:29:34;98332.41;;;9.60;84.70
41624;BME280;27319;50.306;18.926;2023-04-21T00:32:34;98327.19;;;9.59;85.54
41624;BME280;27319;50.306;18.926;2023-04-21T00:35:55;98334.03;;;9.53;84.90
41624;BME280;27319;50.306;18.926;2023-04-21T00:39:11;98333.19;;;9.53;86.13
41624;BME280;27319;50.306;18.926;2023-04-21T00:42:32;98326.63;;;9.47;85.76
41624;BME280;27319;50.306;18.926;2023-04-21T00:45:33;98333.16;;;9.45;85.29
41624;BME280;27319;50.306;18.926;2023-04-21T00:48:35;98330.66;;;9.51;85.70
41624;BME280;27319;50.306;18.926;2023-04-21T00:51:36;98337.66;;;9.44;85.34
41624;BME280;27319;50.306;18.926;2023-04-21T00:54:38;98329.88;;;9.33;85.49
41624;BME280;27319;50.306;18.926;2023-04-21T00:57:59;98327.28;;;9.16;85.33
41624;BME280;27319;50.306;18.926;2023-04-21T01:01:36;98328.94;;;9.17;85.57
41624;BME280;27319;50.306;18.926;2023-04-21T01:04:38;98325.06;;;9.11;85.40
41624;BME280;27319;50.306;18.926;2023-04-21T01:07:40;98324.34;;;9.01;86.15
41624;BME280;27319;50.306;18.926;2023-04-21T01:10:40;98313.41;;;8.95;85.97
41624;BME280;27319;50.306;18.926;2023-04-21T01:13:42;98319.22;;;8.90;85.33
41624;BME280;27319;50.306;18.926;2023-04-21T01:16:43;98314.66;;;8.83;85.12
41624;BME280;27319;50.306;18.926;2023-04-21T01:19:45;98319.91;;;8.92;85.89
41624;BME280;27319;50.306;18.926;2023-04-21T01:22:45;98317.22;;;8.92;86.21
41624;BME280;27319;50.306;18.926;2023-04-21T01:26:07;98315.94;;;8.96;86.08
41624;BME280;27319;50.306;18.926;2023-04-21T01:30:07;98330.72;;;9.08;85.68
41624;BME280;27319;50.306;18.926;2023-04-21T01:33:49;98326.72;;;8.87;84.70
41624;BME280;27319;50.306;18.926;2023-04-21T01:36:49;98331.78;;;8.72;85.19
41624;BME280;27319;50.306;18.926;2023-04-21T01:39:53;98330.34;;;8.60;84.52
41624;BME280;27319;50.306;18.926;2023-04-21T01:42:54;98334.16;;;8.40;84.81
41624;BME280;27319;50.306;18.926;2023-04-21T01:45:56;98330.50;;;8.41;86.44
41624;BME280;27319;50.306;18.926;2023-04-21T01:48:57;98331.19;;;8.61;86.02
41624;BME280;27319;50.306;18.926;2023-04-21T01:51:58;98325.63;;;8.54;86.33
41624;BME280;27319;50.306;18.926;2023-04-21T01:54:59;98325.69;;;8.62;86.44
41624;BME280;27319;50.306;18.926;2023-04-21T01:58:01;98323.06;;;8.70;86.29
41624;BME280;27319;50.306;18.926;2023-04-21T02:01:21;98328.50;;;8.61;85.79
41624;BME280;27319;50.306;18.926;2023-04-21T02:05:03;98325.91;;;8.51;85.34
41624;BME280;27319;50.306;18.926;2023-04-21T02:08:04;98330.19;;;8.44;86.52
41624;BME280;27319;50.306;18.926;2023-04-21T02:11:06;98329.72;;;8.49;86.84
41624;BME280;27319;50.306;18.926;2023-04-21T02:14:07;98315.28;;;8.42;84.95
41624;BME280;27319;50.306;18.926;2023-04-21T02:17:28;98320.94;;;8.56;86.96
41624;BME280;27319;50.306;18.926;2023-04-21T02:21:09;98326.19;;;8.48;85.98
41624;BME280;27319;50.306;18.926;2023-04-21T02:24:29;98313.22;;;8.53;86.57
41624;BME280;27319;50.306;18.926;2023-04-21T02:27:45;98321.78;;;8.39;84.98
41624;BME280;27319;50.306;18.926;2023-04-21T02:30:46;98322.94;;;8.37;86.59
41624;BME280;27319;50.306;18.926;2023-04-21T02:33:47;98316.38;;;8.31;86.13
41624;BME280;27319;50.306;18.926;2023-04-21T02:36:48;98325.13;;;8.41;86.26
41624;BME280;27319;50.306;18.926;2023-04-21T02:39:49;98323.78;;;8.37;84.31
41624;BME280;27319;50.306;18.926;2023-04-21T02:42:50;98316.06;;;8.34;86.53
41624;BME280;27319;50.306;18.926;2023-04-21T02:46:11;98315.00;;;8.27;86.41
41624;BME280;27319;50.306;18.926;2023-04-21T02:49:42;98313.50;;;8.15;86.10
41624;BME280;27319;50.306;18.926;2023-04-21T02:53:22;98311.81;;;8.14;86.59
41624;BME280;27319;50.306;18.926;2023-04-21T02:56:23;98315.63;;;8.12;85.83
41624;BME280;27319;50.306;18.926;2023-04-21T02:59:24;98319.72;;;8.06;86.57
41624;BME280;27319;50.306;18.926;2023-04-21T03:02:25;98312.47;;;7.99;86.42
41624;BME280;27319;50.306;18.926;2023-04-21T03:06:06;98311.31;;;8.01;86.77
41624;BME280;27319;50.306;18.926;2023-04-21T03:09:11;98314.59;;;7.95;85.60
41624;BME280;27319;50.306;18.926;2023-04-21T03:12:32;98320.47;;;7.99;86.57
41624;BME280;27319;50.306;18.926;2023-04-21T03:16:33;98315.94;;;7.82;85.04
41624;BME280;27319;50.306;18.926;2023-04-21T03:20:14;98316.53;;;7.76;86.14
41624;BME280;27319;50.306;18.926;2023-04-21T03:23:15;98314.66;;;7.86;87.03
41624;BME280;27319;50.306;18.926;2023-04-21T03:26:17;98315.72;;;7.75;85.84
41624;BME280;27319;50.306;18.926;2023-04-21T03:29:18;98309.78;;;7.81;86.02
41624;BME280;27319;50.306;18.926;2023-04-21T03:32:19;98316.50;;;7.85;86.78
41624;BME280;27319;50.306;18.926;2023-04-21T03:35:20;98315.59;;;7.94;87.41
41624;BME280;27319;50.306;18.926;2023-04-21T03:38:21;98315.59;;;7.94;86.28
41624;BME280;27319;50.306;18.926;2023-04-21T03:41:42;98319.19;;;7.85;85.60
41624;BME280;27319;50.306;18.926;2023-04-21T03:45:43;98324.13;;;7.80;86.06
41624;BME280;27319;50.306;18.926;2023-04-21T03:49:24;98330.66;;;7.68;85.68
41624;BME280;27319;50.306;18.926;2023-04-21T03:52:44;98327.88;;;7.60;86.01
41624;BME280;27319;50.306;18.926;2023-04-21T03:55:53;98338.06;;;7.47;86.12
41624;BME280;27319;50.306;18.926;2023-04-21T03:58:54;98336.78;;;7.51;86.85
41624;BME280;27319;50.306;18.926;2023-04-21T04:01:55;98337.91;;;7.49;86.71
41624;BME280;27319;50.306;18.926;2023-04-21T04:05:16;98336.06;;;7.49;86.67
41624;BME280;27319;50.306;18.926;2023-04-21T04:08:57;98338.47;;;7.52;86.89
41624;BME280;27319;50.306;18.926;2023-04-21T04:11:57;98346.00;;;7.57;86.86
41624;BME280;27319;50.306;18.926;2023-04-21T04:15:18;98349.00;;;7.54;86.61
41624;BME280;27319;50.306;18.926;2023-04-21T04:18:59;98354.94;;;7.48;86.26
41624;BME280;27319;50.306;18.926;2023-04-21T04:22:01;98361.09;;;7.48;86.57
41624;BME280;27319;50.306;18.926;2023-04-21T04:25:02;98360.81;;;7.42;86.53
41624;BME280;27319;50.306;18.926;2023-04-21T04:28:23;98355.19;;;7.45;87.20
41624;BME280;27319;50.306;18.926;2023-04-21T04:32:19;98356.25;;;7.61;87.22
41624;BME280;27319;50.306;18.926;2023-04-21T04:35:56;98361.41;;;7.45;87.24
41624;BME280;27319;50.306;18.926;2023-04-21T04:38:57;98360.94;;;7.50;87.19
41624;BME280;27319;50.306;18.926;2023-04-21T04:42:19;98359.41;;;7.47;87.78
41624;BME280;27319;50.306;18.926;2023-04-21T04:46:00;98359.81;;;7.52;86.96
41624;BME280;27319;50.306;18.926;2023-04-21T04:49:01;98362.09;;;7.47;87.01
41624;BME280;27319;50.306;18.926;2023-04-21T04:52:02;98362.09;;;7.47;87.60
41624;BME280;27319;50.306;18.926;2023-04-21T04:55:03;98359.38;;;7.57;87.38
41624;BME280;27319;50.306;18.926;2023-04-21T04:58:04;98363.31;;;7.62;87.11
41624;BME280;27319;50.306;18.926;2023-04-21T05:01:14;98365.25;;;7.60;87.29
41624;BME280;27319;50.306;18.926;2023-04-21T05:04:16;98361.31;;;7.64;87.64
41624;BME280;27319;50.306;18.926;2023-04-21T05:07:17;98363.53;;;7.69;87.74
41624;BME280;27319;50.306;18.926;2023-04-21T05:10:18;98362.72;;;7.68;87.57
41624;BME280;27319;50.306;18.926;2023-04-21T05:13:21;98368.84;;;7.78;87.03
41624;BME280;27319;50.306;18.926;2023-04-21T05:16:42;98368.69;;;7.80;87.73
41624;BME280;27319;50.306;18.926;2023-04-21T05:20:43;98363.41;;;7.97;86.46
41624;BME280;27319;50.306;18.926;2023-04-21T05:24:32;98362.34;;;8.08;86.85
41624;BME280;27319;50.306;18.926;2023-04-21T05:28:09;98357.56;;;8.11;86.58
41624;BME280;27319;50.306;18.926;2023-04-21T05:31:49;98361.31;;;8.18;85.99
41624;BME280;27319;50.306;18.926;2023-04-21T05:34:50;98364.53;;;8.22;86.27
41624;BME280;27319;50.306;18.926;2023-04-21T05:37:51;98366.84;;;8.34;85.80
41624;BME280;27319;50.306;18.926;2023-04-21T05:41:12;98369.59;;;8.42;86.20
41624;BME280;27319;50.306;18.926;2023-04-21T05:45:13;98375.75;;;8.52;85.43
41624;BME280;27319;50.306;18.926;2023-04-21T05:48:54;98366.50;;;8.64;84.21
41624;BME280;27319;50.306;18.926;2023-04-21T05:51:55;98365.44;;;8.75;84.63
41624;BME280;27319;50.306;18.926;2023-04-21T05:55:16;98363.28;;;8.78;84.04
41624;BME280;27319;50.306;18.926;2023-04-21T05:59:16;98366.69;;;8.88;83.82
41624;BME280;27319;50.306;18.926;2023-04-21T06:02:57;98365.31;;;9.02;83.95
41624;BME280;27319;50.306;18.926;2023-04-21T06:05:59;98368.38;;;9.07;83.90
41624;BME280;27319;50.306;18.926;2023-04-21T06:09:20;98361.22;;;9.15;83.98
41624;BME280;27319;50.306;18.926;2023-04-21T06:13:01;98363.81;;;9.25;83.47
41624;BME280;27319;50.306;18.926;2023-04-21T06:16:22;98362.78;;;9.43;81.60
41624;BME280;27319;50.306;18.926;2023-04-21T06:20:03;98365.19;;;9.54;80.72
41624;BME280;27319;50.306;18.926;2023-04-21T06:23:24;98370.31;;;9.73;80.39
41624;BME280;27319;50.306;18.926;2023-04-21T06:27:25;98366.81;;;10.06;78.63
41624;BME280;27319;50.306;18.926;2023-04-21T06:31:06;98368.34;;;10.09;77.55
41624;BME280;27319;50.306;18.926;2023-04-21T06:34:27;98371.06;;;10.25;77.70
41624;BME280;27319;50.306;18.926;2023-04-21T06:38:28;98369.78;;;10.45;75.66
41624;BME280;27319;50.306;18.926;2023-04-21T06:42:09;98367.97;;;10.61;75.15
41624;BME280;27319;50.306;18.926;2023-04-21T06:45:29;98370.69;;;10.85;74.67
41624;BME280;27319;50.306;18.926;2023-04-21T06:49:30;98369.00;;;11.00;73.35
41624;BME280;27319;50.306;18.926;2023-04-21T06:53:31;98362.63;;;11.09;72.20
41624;BME280;27319;50.306;18.926;2023-04-21T06:57:12;98368.84;;;11.25;71.53
41624;BME280;27319;50.306;18.926;2023-04-21T07:00:34;98379.25;;;11.44;70.83
41624;BME280;27319;50.306;18.926;2023-04-21T07:04:15;98374.69;;;11.61;68.66
41624;BME280;27319;50.306;18.926;2023-04-21T07:07:16;98377.03;;;11.72;68.23
41624;BME280;27319;50.306;18.926;2023-04-21T07:10:17;98376.63;;;11.91;68.51
41624;BME280;27319;50.306;18.926;2023-04-21T07:13:19;98376.25;;;12.02;66.75
41624;BME280;27319;50.306;18.926;2023-04-21T07:16:40;98373.72;;;12.08;66.47
41624;BME280;27319;50.306;18.926;2023-04-21T07:19:56;98378.66;;;12.27;64.35
41624;BME280;27319;50.306;18.926;2023-04-21T07:23:17;98371.88;;;12.39;63.87
41624;BME280;27319;50.306;18.926;2023-04-21T07:26:58;98366.53;;;12.62;64.55
41624;BME280;27319;50.306;18.926;2023-04-21T07:30:19;98366.50;;;12.70;63.40
41624;BME280;27319;50.306;18.926;2023-04-21T07:34:00;98364.69;;;12.85;61.12
41624;BME280;27319;50.306;18.926;2023-04-21T07:37:20;98366.94;;;13.04;61.78
41624;BME280;27319;50.306;18.926;2023-04-21T07:41:01;98374.19;;;13.26;60.76
41624;BME280;27319;50.306;18.926;2023-04-21T07:44:02;98365.06;;;13.27;60.59
41624;BME280;27319;50.306;18.926;2023-04-21T07:47:23;98371.56;;;13.55;60.78
41624;BME280;27319;50.306;18.926;2023-04-21T07:50:39;98361.44;;;13.71;58.66
41624;BME280;27319;50.306;18.926;2023-04-21T07:53:40;98358.16;;;13.76;58.56
41624;BME280;27319;50.306;18.926;2023-04-21T07:57:01;98359.84;;;13.77;58.03
41624;BME280;27319;50.306;18.926;2023-04-21T08:01:02;98363.09;;;14.01;58.12
41624;BME280;27319;50.306;18.926;2023-04-21T08:04:43;98368.69;;;14.29;56.54
41624;BME280;27319;50.306;18.926;2023-04-21T08:07:44;98368.22;;;14.40;57.33
41624;BME280;27319;50.306;18.926;2023-04-21T08:11:06;98372.47;;;14.63;55.94
41624;BME280;27319;50.306;18.926;2023-04-21T08:14:47;98364.81;;;14.67;56.18
41624;BME280;27319;50.306;18.926;2023-04-21T08:18:08;98367.28;;;14.83;55.33
41624;BME280;27319;50.306;18.926;2023-04-21T08:22:09;98371.06;;;14.88;54.51
41624;BME280;27319;50.306;18.926;2023-04-21T08:26:10;98373.00;;;14.94;54.26
41624;BME280;27319;50.306;18.926;2023-04-21T08:30:13;98366.53;;;15.10;54.89
41624;BME280;27319;50.306;18.926;2023-04-21T08:33:56;98368.84;;;15.34;52.97
41624;BME280;27319;50.306;18.926;2023-04-21T08:36:59;98372.34;;;15.55;53.71
41624;BME280;27319;50.306;18.926;2023-04-21T08:40:00;98372.09;;;15.50;50.30
41624;BME280;27319;50.306;18.926;2023-04-21T08:43:07;98365.81;;;15.71;49.57
41624;BME280;27319;50.306;18.926;2023-04-21T08:46:11;98367.97;;;15.82;48.04
41624;BME280;27319;50.306;18.926;2023-04-21T08:49:17;98370.56;;;15.96;50.74
41624;BME280;27319;50.306;18.926;2023-04-21T08:52:18;98363.44;;;15.89;48.96
41624;BME280;27319;50.306;18.926;2023-04-21T08:55:25;98358.34;;;16.07;49.26
41624;BME280;27319;50.306;18.926;2023-04-21T08:58:47;98358.34;;;16.41;46.83
41624;BME280;27319;50.306;18.926;2023-04-21T09:02:58;98354.06;;;16.72;48.38
41624;BME280;27319;50.306;18.926;2023-04-21T09:07:00;98365.97;;;16.65;45.95
41624;BME280;27319;50.306;18.926;2023-04-21T09:11:04;98354.66;;;16.55;45.88
41624;BME280;27319;50.306;18.926;2023-04-21T09:15:05;98347.22;;;16.36;46.96
41624;BME280;27319;50.306;18.926;2023-04-21T09:18:46;98359.00;;;16.09;47.92
41624;BME280;27319;50.306;18.926;2023-04-21T09:21:46;98344.88;;;16.20;48.92
41624;BME280;27319;50.306;18.926;2023-04-21T09:24:48;98346.88;;;16.39;46.90
41624;BME280;27319;50.306;18.926;2023-04-21T09:28:11;98346.69;;;16.40;46.48
41624;BME280;27319;50.306;18.926;2023-04-21T09:31:31;98348.84;;;16.17;43.38
41624;BME280;27319;50.306;18.926;2023-04-21T09:34:40;98341.38;;;16.26;43.71
41624;BME280;27319;50.306;18.926;2023-04-21T09:37:44;98341.03;;;16.01;42.73
41624;BME280;27319;50.306;18.926;2023-04-21T09:41:05;98334.84;;;16.14;44.90
41624;BME280;27319;50.306;18.926;2023-04-21T09:44:46;98333.78;;;16.55;43.99
41624;BME280;27319;50.306;18.926;2023-04-21T09:48:06;98330.34;;;16.74;44.50
41624;BME280;27319;50.306;18.926;2023-04-21T09:52:07;98331.22;;;17.01;42.65
41624;BME280;27319;50.306;18.926;2023-04-21T09:55:28;98336.56;;;16.75;42.72
41624;BME280;27319;50.306;18.926;2023-04-21T09:58:51;98323.94;;;17.14;44.16
41624;BME280;27319;50.306;18.926;2023-04-21T10:02:51;98328.91;;;16.98;42.08
41624;BME280;27319;50.306;18.926;2023-04-21T10:06:32;98318.91;;;17.11;44.61
41624;BME280;27319;50.306;18.926;2023-04-21T10:09:39;98323.94;;;17.21;41.70
41624;BME280;27319;50.306;18.926;2023-04-21T10:12:41;98329.00;;;17.43;41.99
41624;BME280;27319;50.306;18.926;2023-04-21T10:15:43;98341.06;;;17.47;40.82
41624;BME280;27319;50.306;18.926;2023-04-21T10:18:44;98332.53;;;17.44;41.33
41624;BME280;27319;50.306;18.926;2023-04-21T10:21:48;98331.91;;;17.42;42.38
41624;BME280;27319;50.306;18.926;2023-04-21T10:24:54;98320.19;;;17.61;40.37
41624;BME280;27319;50.306;18.926;2023-04-21T10:28:17;98321.03;;;17.81;41.60
41624;BME280;27319;50.306;18.926;2023-04-21T10:32:29;98317.25;;;17.82;39.55
41624;BME280;27319;50.306;18.926;2023-04-21T10:36:17;98309.53;;;17.66;39.34
41624;BME280;27319;50.306;18.926;2023-04-21T10:40:33;98311.03;;;17.55;42.18
41624;BME280;27319;50.306;18.926;2023-04-21T10:44:14;98314.75;;;17.87;39.63
41624;BME280;27319;50.306;18.926;2023-04-21T10:48:14;98315.09;;;18.10;39.10
41624;BME280;27319;50.306;18.926;2023-04-21T10:55:05;98309.28;;;18.57;37.86
41624;BME280;27319;50.306;18.926;2023-04-21T10:58:07;98303.84;;;18.94;39.53
41624;BME280;27319;50.306;18.926;2023-04-21T11:01:19;98310.47;;;19.05;37.86
41624;BME280;27319;50.306;18.926;2023-04-21T11:04:20;98308.09;;;19.15;37.71
41624;BME280;27319;50.306;18.926;2023-04-21T11:07:22;98311.38;;;19.30;37.45
41624;BME280;27319;50.306;18.926;2023-04-21T11:10:51;98307.69;;;19.42;38.46
41624;BME280;27319;50.306;18.926;2023-04-21T11:13:52;98296.16;;;19.16;37.13
41624;BME280;27319;50.306;18.926;2023-04-21T11:17:16;98299.91;;;19.21;36.05
41624;BME280;27319;50.306;18.926;2023-04-21T11:21:14;98296.84;;;18.74;36.18
41624;BME280;27319;50.306;18.926;2023-04-21T11:24:56;98287.47;;;18.19;37.54
41624;BME280;27319;50.306;18.926;2023-04-21T11:27:57;98285.63;;;18.07;40.15
41624;BME280;27319;50.306;18.926;2023-04-21T11:30:59;98278.72;;;18.11;40.93
41624;BME280;27319;50.306;18.926;2023-04-21T11:34:21;98283.69;;;18.71;40.44
41624;BME280;27319;50.306;18.926;2023-04-21T11:38:24;98283.50;;;19.28;37.15
41624;BME280;27319;50.306;18.926;2023-04-21T11:42:25;98277.88;;;18.98;35.82
41624;BME280;27319;50.306;18.926;2023-04-21T11:49:49;98278.81;;;18.79;37.41
41624;BME280;27319;50.306;18.926;2023-04-21T11:53:29;98275.19;;;19.23;36.57
41624;BME280;27319;50.306;18.926;2023-04-21T11:56:34;98271.13;;;19.56;40.09
41624;BME280;27319;50.306;18.926;2023-04-21T11:59:36;98281.38;;;19.79;36.38
41624;BME280;27319;50.306;18.926;2023-04-21T12:02:37;98273.50;;;20.13;36.69
41624;BME280;27319;50.306;18.926;2023-04-21T12:05:39;98260.09;;;20.41;35.67
41624;BME280;27319;50.306;18.926;2023-04-21T12:08:39;98276.28;;;20.25;35.00
41624;BME280;27319;50.306;18.926;2023-04-21T12:11:41;98272.56;;;20.67;36.23
41624;BME280;27319;50.306;18.926;2023-04-21T12:14:43;98267.53;;;20.82;35.78
41624;BME280;27319;50.306;18.926;2023-04-21T12:18:04;98273.13;;;21.28;32.85
41624;BME280;27319;50.306;18.926;2023-04-21T12:22:08;98263.03;;;21.17;34.11
41624;BME280;27319;50.306;18.926;2023-04-21T12:26:06;98268.41;;;21.58;32.80
41624;BME280;27319;50.306;18.926;2023-04-21T12:30:07;98253.00;;;21.75;35.41
41624;BME280;27319;50.306;18.926;2023-04-21T12:34:08;98253.69;;;22.05;31.87
41624;BME280;27319;50.306;18.926;2023-04-21T12:38:09;98267.25;;;21.54;32.08
41624;BME280;27319;50.306;18.926;2023-04-21T12:41:50;98251.91;;;21.99;33.63
41624;BME280;27319;50.306;18.926;2023-04-21T12:45:30;98252.66;;;22.34;34.07
41624;BME280;27319;50.306;18.926;2023-04-21T12:48:32;98248.81;;;22.58;32.56
41624;BME280;27319;50.306;18.926;2023-04-21T12:51:34;98247.56;;;22.37;33.14
41624;BME280;27319;50.306;18.926;2023-04-21T12:54:55;98254.28;;;22.58;33.93
41624;BME280;27319;50.306;18.926;2023-04-21T12:58:56;98249.50;;;22.65;34.51
41624;BME280;27319;50.306;18.926;2023-04-21T13:02:56;98247.63;;;22.54;30.83
41624;BME280;27319;50.306;18.926;2023-04-21T13:06:57;98245.66;;;22.94;32.67
41624;BME280;27319;50.306;18.926;2023-04-21T13:10:00;98228.03;;;23.34;33.91
41624;BME280;27319;50.306;18.926;2023-04-21T13:13:01;98234.38;;;23.18;33.47
41624;BME280;27319;50.306;18.926;2023-04-21T13:16:02;98235.72;;;22.20;32.56
41624;BME280;27319;50.306;18.926;2023-04-21T13:19:23;98227.47;;;21.69;34.61
41624;BME280;27319;50.306;18.926;2023-04-21T13:23:04;98217.44;;;21.98;38.23
41624;BME280;27319;50.306;18.926;2023-04-21T13:26:24;98221.59;;;22.12;32.78
41624;BME280;27319;50.306;18.926;2023-04-21T13:30:23;98221.72;;;22.73;34.19
41624;BME280;27319;50.306;18.926;2023-04-21T13:33:24;98224.44;;;23.01;35.10
41624;BME280;27319;50.306;18.926;2023-04-21T13:36:45;98215.91;;;23.14;30.48
41624;BME280;27319;50.306;18.926;2023-04-21T13:40:46;98213.63;;;23.39;33.56
41624;BME280;27319;50.306;18.926;2023-04-21T13:44:47;98218.06;;;23.61;32.56
41624;BME280;27319;50.306;18.926;2023-04-21T13:48:32;98216.66;;;23.09;31.08
41624;BME280;27319;50.306;18.926;2023-04-21T13:51:52;98211.63;;;22.34;32.54
41624;BME280;27319;50.306;18.926;2023-04-21T13:55:53;98205.44;;;23.11;31.27
41624;BME280;27319;50.306;18.926;2023-04-21T13:59:21;98198.22;;;23.05;30.10
41624;BME280;27319;50.306;18.926;2023-04-21T14:02:42;98196.00;;;23.35;32.47
41624;BME280;27319;50.306;18.926;2023-04-21T14:06:23;98197.81;;;23.62;28.74
41624;BME280;27319;50.306;18.926;2023-04-21T14:09:24;98193.44;;;23.83;31.89
41624;BME280;27319;50.306;18.926;2023-04-21T14:12:26;98184.81;;;23.91;32.89
41624;BME280;27319;50.306;18.926;2023-04-21T14:15:46;98186.72;;;23.19;29.65
41624;BME280;27319;50.306;18.926;2023-04-21T14:19:28;98180.00;;;22.38;30.76
41624;BME280;27319;50.306;18.926;2023-04-21T14:22:49;98176.09;;;22.06;30.81
41624;BME280;27319;50.306;18.926;2023-04-21T14:26:49;98172.63;;;22.10;31.28
41624;BME280;27319;50.306;18.926;2023-04-21T14:30:50;98172.13;;;22.41;31.54
41624;BME280;27319;50.306;18.926;2023-04-21T14:34:51;98165.44;;;22.60;31.97
41624;BME280;27319;50.306;18.926;2023-04-21T14:38:36;98167.25;;;22.71;29.16
41624;BME280;27319;50.306;18.926;2023-04-21T14:41:37;98167.03;;;22.45;30.05
41624;BME280;27319;50.306;18.926;2023-04-21T14:44:38;98162.31;;;22.57;32.94
41624;BME280;27319;50.306;18.926;2023-04-21T14:47:59;98150.09;;;22.76;30.51
41624;BME280;27319;50.306;18.926;2023-04-21T14:51:40;98160.53;;;22.62;30.94
41624;BME280;27319;50.306;18.926;2023-04-21T14:54:41;98154.31;;;22.67;30.94
41624;BME280;27319;50.306;18.926;2023-04-21T14:58:02;98150.69;;;22.22;30.56
41624;BME280;27319;50.306;18.926;2023-04-21T15:02:03;98142.53;;;21.71;31.78
41624;BME280;27319;50.306;18.926;2023-04-21T15:05:44;98134.38;;;21.36;31.68
41624;BME280;27319;50.306;18.926;2023-04-21T15:09:01;98131.88;;;21.00;34.36
41624;BME280;27319;50.306;18.926;2023-04-21T15:12:04;98127.09;;;20.84;32.39
41624;BME280;27319;50.306;18.926;2023-04-21T15:16:04;98128.22;;;20.54;32.87
41624;BME280;27319;50.306;18.926;2023-04-21T15:20:05;98121.19;;;20.35;32.68
41624;BME280;27319;50.306;18.926;2023-04-21T15:24:06;98119.75;;;20.32;35.23
41624;BME280;27319;50.306;18.926;2023-04-21T15:28:07;98119.25;;;20.35;35.33
41624;BME280;27319;50.306;18.926;2023-04-21T15:32:07;98116.53;;;20.06;35.00
41624;BME280;27319;50.306;18.926;2023-04-21T15:35:48;98108.34;;;19.58;35.25
41624;BME280;27319;50.306;18.926;2023-04-21T15:38:49;98107.22;;;19.66;37.64
41624;BME280;27319;50.306;18.926;2023-04-21T15:41:50;98104.56;;;19.59;38.10
41624;BME280;27319;50.306;18.926;2023-04-21T15:45:12;98103.53;;;19.42;35.61
41624;BME280;27319;50.306;18.926;2023-04-21T15:48:53;98104.06;;;18.66;37.92
41624;BME280;27319;50.306;18.926;2023-04-21T15:51:57;98106.72;;;18.48;36.96
41624;BME280;27319;50.306;18.926;2023-04-21T15:54:58;98102.69;;;18.57;38.25
41624;BME280;27319;50.306;18.926;2023-04-21T15:57:59;98098.06;;;18.82;40.26
41624;BME280;27319;50.306;18.926;2023-04-21T16:01:04;98096.72;;;18.91;39.63
41624;BME280;27319;50.306;18.926;2023-04-21T16:04:05;98083.69;;;18.99;38.14
41624;BME280;27319;50.306;18.926;2023-04-21T16:07:26;98083.69;;;18.99;38.86
41624;BME280;27319;50.306;18.926;2023-04-21T16:11:27;98080.56;;;18.78;37.24
41624;BME280;27319;50.306;18.926;2023-04-21T16:14:56;98077.03;;;18.71;36.56
41624;BME280;27319;50.306;18.926;2023-04-21T16:18:13;98081.81;;;18.51;38.45
41624;BME280;27319;50.306;18.926;2023-04-21T16:21:14;98079.59;;;18.41;37.80
41624;BME280;27319;50.306;18.926;2023-04-21T16:32:52;98079.81;;;18.09;42.23
41624;BME280;27319;50.306;18.926;2023-04-21T16:49:26;98070.88;;;17.64;42.10
41624;BME280;27319;50.306;18.926;2023-04-21T16:53:27;98070.75;;;17.53;41.19
41624;BME280;27319;50.306;18.926;2023-04-21T16:57:28;98077.25;;;17.39;39.76
41624;BME280;27319;50.306;18.926;2023-04-21T17:01:29;98066.88;;;17.16;41.64
41624;BME280;27319;50.306;18.926;2023-04-21T17:05:30;98067.34;;;17.07;41.53
41624;BME280;27319;50.306;18.926;2023-04-21T17:09:31;98070.09;;;16.94;41.86
41624;BME280;27319;50.306;18.926;2023-04-21T17:13:31;98071.75;;;16.88;41.95
41624;BME280;27319;50.306;18.926;2023-04-21T17:17:39;98068.88;;;16.77;44.42
41624;BME280;27319;50.306;18.926;2023-04-21T17:21:39;98061.59;;;16.64;44.69
41624;BME280;27319;50.306;18.926;2023-04-21T17:25:40;98058.66;;;16.53;44.27
41624;BME280;27319;50.306;18.926;2023-04-21T17:29:40;98068.03;;;16.31;42.60
41624;BME280;27319;50.306;18.926;2023-04-21T17:33:42;98059.28;;;16.22;44.79
41624;BME280;27319;50.306;18.926;2023-04-21T17:37:42;98065.28;;;16.05;46.45
41624;BME280;27319;50.306;18.926;2023-04-21T17:41:43;98059.44;;;15.95;47.15
41624;BME280;27319;50.306;18.926;2023-04-21T17:45:44;98064.03;;;15.88;46.30
41624;BME280;27319;50.306;18.926;2023-04-21T17:49:45;98061.03;;;15.63;45.75
41624;BME280;27319;50.306;18.926;2023-04-21T17:53:45;98060.00;;;15.58;48.79
41624;BME280;27319;50.306;18.926;2023-04-21T17:57:46;98066.84;;;15.54;48.39
41624;BME280;27319;50.306;18.926;2023-04-21T18:01:47;98065.59;;;15.50;50.14
41624;BME280;27319;50.306;18.926;2023-04-21T18:05:48;98074.31;;;15.39;49.94
41624;BME280;27319;50.306;18.926;2023-04-21T18:09:53;98068.41;;;15.29;52.38
41624;BME280;27319;50.306;18.926;2023-04-21T18:13:54;98073.34;;;15.19;53.11
41624;BME280;27319;50.306;18.926;2023-04-21T18:17:54;98074.56;;;15.10;51.46
41624;BME280;27319;50.306;18.926;2023-04-21T18:21:55;98074.50;;;15.03;55.34
41624;BME280;27319;50.306;18.926;2023-04-21T18:25:18;98069.84;;;14.91;55.71
41624;BME280;27319;50.306;18.926;2023-04-21T18:28:39;98074.41;;;14.84;55.86
41624;BME280;27319;50.306;18.926;2023-04-21T18:32:20;98077.66;;;14.73;54.46